createdAt,value
2023-04-08T00:01:35.914Z,6.90
2023-04-08T00:04:05.758Z,6.90
2023-04-08T00:06:35.313Z,6.90
2023-04-08T00:09:06.561Z,7.00
2023-04-08T00:11:36.281Z,7.00
2023-04-08T00:14:06.288Z,7.10
2023-04-08T00:16:36.117Z,7.10
2023-04-08T00:19:06.954Z,7.10
2023-04-08T00:21:36.733Z,7.10
2023-04-08T00:24:08.289Z,7.10
2023-04-08T00:26:38.214Z,7.10
2023-04-08T00:29:07.735Z,7.20
2023-04-08T00:31:37.312Z,7.20
2023-04-08T00:34:06.624Z,7.30
2023-04-08T00:36:36.736Z,7.30
2023-04-08T00:39:08.796Z,7.30
2023-04-08T00:41:38.128Z,7.30
2023-04-08T00:44:08.117Z,7.30
2023-04-08T00:46:40.681Z,7.40
2023-04-08T00:49:10.506Z,7.30
2023-04-08T00:51:39.902Z,7.30
2023-04-08T00:54:11.059Z,7.40
2023-04-08T00:56:40.753Z,7.40
2023-04-08T00:59:10.382Z,7.40
2023-04-08T01:01:52.005Z,7.40
2023-04-08T01:04:31.897Z,7.40
2023-04-08T01:07:08.294Z,7.20
2023-04-08T01:09:46.387Z,7.30
2023-04-08T01:12:23.355Z,7.20
2023-04-08T01:14:57.937Z,7.20
2023-04-08T01:17:27.595Z,6.90
2023-04-08T01:20:00.108Z,6.90
2023-04-08T01:22:37.048Z,7.00
2023-04-08T01:25:18.732Z,6.80
2023-04-08T01:27:51.612Z,6.60
2023-04-08T01:30:22.870Z,6.70
2023-04-08T01:32:53.524Z,6.60
2023-04-08T01:35:23.763Z,6.60
2023-04-08T01:37:55.353Z,6.60
2023-04-08T01:40:25.290Z,6.30
2023-04-08T01:42:59.493Z,6.20
2023-04-08T01:45:29.516Z,6.00
2023-04-08T01:48:00.622Z,5.90
2023-04-08T01:50:31.697Z,5.80
2023-04-08T01:53:02.573Z,5.70
2023-04-08T01:55:34.186Z,5.70
2023-04-08T01:58:07.599Z,5.70
2023-04-08T02:00:38.732Z,5.60
2023-04-08T02:03:10.748Z,5.60
2023-04-08T02:05:41.414Z,5.60
2023-04-08T02:08:11.139Z,5.50
2023-04-08T02:10:41.067Z,5.40
2023-04-08T02:13:12.396Z,5.30
2023-04-08T02:15:47.103Z,5.40
2023-04-08T02:18:19.283Z,5.50
2023-04-08T02:20:53.704Z,5.40
2023-04-08T02:23:24.556Z,5.30
2023-04-08T02:25:56.330Z,5.40
2023-04-08T02:28:30.810Z,5.40
2023-04-08T02:31:02.480Z,5.40
2023-04-08T02:33:32.283Z,5.40
2023-04-08T02:36:03.256Z,5.30
2023-04-08T02:38:33.029Z,5.40
2023-04-08T02:41:02.649Z,5.40
2023-04-08T02:43:33.791Z,5.50
2023-04-08T02:46:04.629Z,5.60
2023-04-08T02:48:34.126Z,5.60
2023-04-08T02:51:04.057Z,5.50
2023-04-08T02:53:32.862Z,5.60
2023-04-08T02:56:01.524Z,5.70
2023-04-08T02:58:30.221Z,5.50
2023-04-08T03:01:00.325Z,5.50
2023-04-08T03:03:29.938Z,5.60
2023-04-08T03:05:59.456Z,5.50
2023-04-08T03:08:28.104Z,5.40
2023-04-08T03:10:56.780Z,5.50
2023-04-08T03:13:25.907Z,5.50
2023-04-08T03:15:54.606Z,5.50
2023-04-08T03:18:24.654Z,5.40
2023-04-08T03:20:53.331Z,5.40
2023-04-08T03:23:21.970Z,5.40
2023-04-08T03:25:50.627Z,5.40
2023-04-08T03:28:19.198Z,5.40
2023-04-08T03:30:47.906Z,5.30
2023-04-08T03:33:16.466Z,5.30
2023-04-08T03:35:46.595Z,5.20
2023-04-08T03:38:15.352Z,5.30
2023-04-08T03:40:43.933Z,5.20
2023-04-08T03:43:13.157Z,5.10
2023-04-08T03:45:42.071Z,5.10
2023-04-08T03:48:10.737Z,5.20
2023-04-08T03:50:39.426Z,5.20
2023-04-08T03:53:11.481Z,5.20
2023-04-08T03:55:40.304Z,5.30
2023-04-08T03:58:08.993Z,5.40
2023-04-08T04:00:38.022Z,5.40
2023-04-08T04:03:06.810Z,5.30
2023-04-08T04:05:35.673Z,5.30
2023-04-08T04:08:04.351Z,5.20
2023-04-08T04:10:34.411Z,5.20
2023-04-08T04:13:03.138Z,5.20
2023-04-08T04:15:31.880Z,5.30
2023-04-08T04:18:00.613Z,5.40
2023-04-08T04:20:30.512Z,5.30
2023-04-08T04:22:59.180Z,5.20
2023-04-08T04:25:27.829Z,5.30
2023-04-08T04:27:58.016Z,5.30
2023-04-08T04:30:27.394Z,5.40
2023-04-08T04:32:56.537Z,5.30
2023-04-08T04:35:25.318Z,5.30
2023-04-08T04:37:53.978Z,5.40
2023-04-08T04:40:22.749Z,5.60
2023-04-08T04:42:51.478Z,5.50
2023-04-08T04:45:21.612Z,5.50
2023-04-08T04:47:50.302Z,5.50
2023-04-08T04:50:19.032Z,5.40
2023-04-08T04:52:47.745Z,5.40
2023-04-08T04:55:16.853Z,5.50
2023-04-08T04:57:45.751Z,5.40
2023-04-08T05:00:14.829Z,5.50
2023-04-08T05:02:45.149Z,5.40
2023-04-08T05:05:14.103Z,5.40
2023-04-08T05:07:42.850Z,5.50
2023-04-08T05:10:12.371Z,5.60
2023-04-08T05:12:41.648Z,5.50
2023-04-08T05:15:10.790Z,5.50
2023-04-08T05:17:39.518Z,5.60
2023-04-08T05:20:10.436Z,5.50
2023-04-08T05:22:39.174Z,5.60
2023-04-08T05:25:08.694Z,5.40
2023-04-08T05:27:37.330Z,5.40
2023-04-08T05:30:06.951Z,5.50
2023-04-08T05:32:35.865Z,5.40
2023-04-08T05:35:04.986Z,5.30
2023-04-08T05:37:35.149Z,5.20
2023-04-08T05:40:03.945Z,5.40
2023-04-08T05:42:33.548Z,5.50
2023-04-08T05:45:02.459Z,5.50
2023-04-08T05:47:31.186Z,5.40
2023-04-08T05:49:59.916Z,5.30
2023-04-08T05:52:28.592Z,5.30
2023-04-08T05:54:58.758Z,5.30
2023-04-08T05:57:27.395Z,5.50
2023-04-08T05:59:56.228Z,5.50
2023-04-08T06:02:24.998Z,5.40
2023-04-08T06:04:53.874Z,5.50
2023-04-08T06:07:22.568Z,5.60
2023-04-08T06:09:51.290Z,5.70
2023-04-08T06:12:23.673Z,5.80
2023-04-08T06:14:56.288Z,5.80
2023-04-08T06:17:25.225Z,5.90
2023-04-08T06:19:54.037Z,5.80
2023-04-08T06:22:22.691Z,5.60
2023-04-08T06:24:51.532Z,5.70
2023-04-08T06:27:21.794Z,5.70
2023-04-08T06:29:51.081Z,5.80
2023-04-08T06:32:19.998Z,6.00
2023-04-08T06:34:48.771Z,6.20
2023-04-08T06:37:17.511Z,6.40
2023-04-08T06:39:46.144Z,6.70
2023-04-08T06:42:14.818Z,6.80
2023-04-08T06:44:44.808Z,6.70
2023-04-08T06:47:13.427Z,6.80
2023-04-08T06:49:42.082Z,7.00
2023-04-08T06:52:12.552Z,7.10
2023-04-08T06:54:42.459Z,7.00
2023-04-08T06:57:11.960Z,7.10
2023-04-08T06:59:40.837Z,7.20
2023-04-08T07:02:10.998Z,7.50
2023-04-08T07:04:39.785Z,7.60
2023-04-08T07:07:08.606Z,7.70
2023-04-08T07:09:37.827Z,7.60
2023-04-08T07:12:06.571Z,7.40
2023-04-08T07:14:35.312Z,7.30
2023-04-08T07:17:03.954Z,7.40
2023-04-08T07:19:34.148Z,7.30
2023-04-08T07:22:03.072Z,7.20
2023-04-08T07:24:31.788Z,7.20
2023-04-08T07:27:00.663Z,7.20
2023-04-08T07:29:29.443Z,7.50
2023-04-08T07:31:58.178Z,7.70
2023-04-08T07:34:26.886Z,8.00
2023-04-08T07:36:57.010Z,8.20
2023-04-08T07:39:25.596Z,8.00
2023-04-08T07:41:54.184Z,8.10
2023-04-08T07:44:24.262Z,8.30
2023-04-08T07:46:53.009Z,8.20
2023-04-08T07:49:21.744Z,8.00
2023-04-08T07:51:50.626Z,7.90
2023-04-08T07:54:20.959Z,8.10
2023-04-08T07:56:49.627Z,8.20
2023-04-08T07:59:18.582Z,8.40
2023-04-08T08:01:47.335Z,8.30
2023-04-08T08:04:16.324Z,8.50
2023-04-08T08:06:45.265Z,8.70
2023-04-08T08:09:13.915Z,8.70
2023-04-08T08:11:44.064Z,8.60
2023-04-08T08:14:14.102Z,8.20
2023-04-08T08:16:44.819Z,8.20
2023-04-08T08:19:14.213Z,8.20
2023-04-08T08:21:42.909Z,8.40
2023-04-08T08:24:11.546Z,8.40
2023-04-08T08:26:40.768Z,8.50
2023-04-08T08:29:11.083Z,8.60
2023-04-08T08:31:39.745Z,8.90
2023-04-08T08:34:08.568Z,8.60
2023-04-08T08:36:37.191Z,8.30
2023-04-08T08:39:06.106Z,8.60
2023-04-08T08:41:38.238Z,8.60
2023-04-08T08:44:08.658Z,8.70
2023-04-08T08:46:39.783Z,9.00
2023-04-08T08:49:08.677Z,9.30
2023-04-08T08:51:39.844Z,9.30
2023-04-08T08:54:08.711Z,9.10
2023-04-08T08:56:37.528Z,9.30
2023-04-08T08:59:06.644Z,9.20
2023-04-08T09:01:39.322Z,9.30
2023-04-08T09:04:17.131Z,9.50
2023-04-08T09:06:47.077Z,9.50
2023-04-08T09:09:15.989Z,9.50
2023-04-08T09:11:46.414Z,9.40
2023-04-08T09:14:22.717Z,9.50
2023-04-08T09:16:59.092Z,9.30
2023-04-08T09:19:30.268Z,9.40
2023-04-08T09:22:10.791Z,9.50
2023-04-08T09:24:41.094Z,9.30
2023-04-08T09:27:09.844Z,9.40
2023-04-08T09:29:40.189Z,9.40
2023-04-08T09:32:10.442Z,9.40
2023-04-08T09:34:40.626Z,9.50
2023-04-08T09:37:09.281Z,9.80
2023-04-08T09:39:38.054Z,10.00
2023-04-08T09:42:11.453Z,10.00
2023-04-08T09:44:41.548Z,10.10
2023-04-08T09:47:20.287Z,10.00
2023-04-08T09:49:55.060Z,9.80
2023-04-08T09:52:29.868Z,9.70
2023-04-08T09:55:04.373Z,9.80
2023-04-08T09:57:41.917Z,9.90
2023-04-08T10:00:14.424Z,9.70
2023-04-08T10:02:56.679Z,10.20
2023-04-08T10:05:26.707Z,10.70
2023-04-08T10:07:57.342Z,11.00
2023-04-08T10:10:27.653Z,11.30
2023-04-08T10:12:57.182Z,11.50
2023-04-08T10:15:40.808Z,11.30
2023-04-08T10:18:38.177Z,11.10
2023-04-08T10:21:28.387Z,11.20
2023-04-08T10:24:00.193Z,11.30
2023-04-08T10:26:34.950Z,11.30
2023-04-08T10:29:42.905Z,11.20
2023-04-08T10:32:30.780Z,10.80
2023-04-08T10:35:00.881Z,10.50
2023-04-08T10:37:29.694Z,10.20
2023-04-08T10:39:58.871Z,10.00
2023-04-08T10:42:31.140Z,10.00
2023-04-08T10:45:03.509Z,9.90
2023-04-08T10:47:32.688Z,9.80
2023-04-08T10:50:02.857Z,9.80
2023-04-08T10:52:31.708Z,10.00
2023-04-08T10:55:00.319Z,10.30
2023-04-08T10:57:29.160Z,10.60
2023-04-08T10:59:57.976Z,11.00
2023-04-08T11:02:34.647Z,11.30
2023-04-08T11:05:04.921Z,11.40
2023-04-08T11:07:33.656Z,11.60
2023-04-08T11:10:05.252Z,11.90
2023-04-08T11:12:34.241Z,12.40
2023-04-08T11:15:04.279Z,13.30
2023-04-08T11:17:35.857Z,13.60
2023-04-08T11:20:06.961Z,13.90
2023-04-08T11:22:36.044Z,14.20
2023-04-08T11:25:05.205Z,14.50
2023-04-08T11:27:33.901Z,14.90
2023-04-08T11:30:03.192Z,16.40
2023-04-08T11:32:32.069Z,18.10
2023-04-08T11:35:02.850Z,19.50
2023-04-08T11:37:41.144Z,20.80
2023-04-08T11:40:11.498Z,22.10
2023-04-08T11:42:41.425Z,22.90
2023-04-08T11:45:14.406Z,23.50
2023-04-08T11:47:43.496Z,24.20
2023-04-08T11:50:12.565Z,24.00
2023-04-08T11:52:47.210Z,24.80
2023-04-08T11:55:25.797Z,26.30
2023-04-08T11:57:54.814Z,26.30
2023-04-08T12:00:24.541Z,27.00
2023-04-08T12:02:54.087Z,27.70
2023-04-08T12:05:23.025Z,26.60
2023-04-08T12:07:53.313Z,24.40
2023-04-08T12:10:22.088Z,22.70
2023-04-08T12:12:50.799Z,21.40
2023-04-08T12:15:20.472Z,20.40
2023-04-08T12:17:49.320Z,19.50
2023-04-08T12:20:18.904Z,19.10
2023-04-08T12:22:47.561Z,18.30
2023-04-08T12:25:17.722Z,17.70
2023-04-08T12:27:46.360Z,17.90
2023-04-08T12:30:16.508Z,17.80
2023-04-08T12:32:46.185Z,17.40
2023-04-08T12:35:15.308Z,17.00
2023-04-08T12:37:43.976Z,16.90
2023-04-08T12:40:13.172Z,16.70
2023-04-08T12:42:43.279Z,16.50
2023-04-08T12:45:12.258Z,16.50
2023-04-08T12:47:41.262Z,16.50
2023-04-08T12:50:11.141Z,16.60
2023-04-08T12:52:39.776Z,17.80
2023-04-08T12:55:09.374Z,19.40
2023-04-08T12:57:37.978Z,20.90
2023-04-08T13:00:09.707Z,21.00
2023-04-08T13:02:38.473Z,21.10
2023-04-08T13:05:07.758Z,21.40
2023-04-08T13:07:36.364Z,21.40
2023-04-08T13:10:07.147Z,21.10
2023-04-08T13:12:35.959Z,20.70
2023-04-08T13:15:05.751Z,20.20
2023-04-08T13:17:36.843Z,20.90
2023-04-08T13:20:06.994Z,20.90
2023-04-08T13:22:35.898Z,21.60
2023-04-08T13:25:06.837Z,22.50
2023-04-08T13:27:35.857Z,23.80
2023-04-08T13:30:04.796Z,24.70
2023-04-08T13:32:33.541Z,25.80
2023-04-08T13:35:03.925Z,26.10
2023-04-08T13:37:32.552Z,24.90
2023-04-08T13:40:01.848Z,22.60
2023-04-08T13:42:31.689Z,20.80
2023-04-08T13:45:00.747Z,20.30
2023-04-08T13:47:30.082Z,20.70
2023-04-08T13:49:58.794Z,21.50
2023-04-08T13:52:28.929Z,22.70
2023-04-08T13:54:57.889Z,23.60
2023-04-08T13:57:26.847Z,24.70
2023-04-08T13:59:55.745Z,25.50
2023-04-08T14:02:25.201Z,26.40
2023-04-08T14:04:55.814Z,25.40
2023-04-08T14:07:24.552Z,25.20
2023-04-08T14:09:54.502Z,25.60
2023-04-08T14:12:23.186Z,25.30
2023-04-08T14:14:51.937Z,24.90
2023-04-08T14:17:20.884Z,24.50
2023-04-08T14:19:49.582Z,25.10
2023-04-08T14:22:19.327Z,25.10
2023-04-08T14:24:48.054Z,24.30
2023-04-08T14:27:18.206Z,23.60
2023-04-08T14:29:46.983Z,23.50
2023-04-08T14:32:15.789Z,23.30
2023-04-08T14:34:44.906Z,22.60
2023-04-08T14:37:13.735Z,23.20
2023-04-08T14:39:42.402Z,24.20
2023-04-08T14:42:11.436Z,25.40
2023-04-08T14:44:41.697Z,26.10
2023-04-08T14:47:10.817Z,26.10
2023-04-08T14:49:39.740Z,26.40
2023-04-08T14:52:08.547Z,25.60
2023-04-08T14:54:37.628Z,23.50
2023-04-08T14:57:06.748Z,22.30
2023-04-08T14:59:35.441Z,21.00
2023-04-08T15:02:05.873Z,20.40
2023-04-08T15:04:34.753Z,20.10
2023-04-08T15:07:03.953Z,18.90
2023-04-08T15:09:32.647Z,18.50
2023-04-08T15:12:02.077Z,18.30
2023-04-08T15:14:30.827Z,18.40
2023-04-08T15:16:59.529Z,18.40
2023-04-08T15:19:29.774Z,18.50
2023-04-08T15:21:58.516Z,18.40
2023-04-08T15:24:27.298Z,17.80
2023-04-08T15:26:56.565Z,17.80
2023-04-08T15:29:26.233Z,17.70
2023-04-08T15:31:54.912Z,17.30
2023-04-08T15:34:24.122Z,17.40
2023-04-08T15:36:54.213Z,17.30
2023-04-08T15:39:22.994Z,17.10
2023-04-08T15:41:51.808Z,17.10
2023-04-08T15:44:20.806Z,17.00
2023-04-08T15:46:49.574Z,16.90
2023-04-08T15:49:18.262Z,16.70
2023-04-08T15:51:49.840Z,16.60
2023-04-08T15:54:20.040Z,15.90
2023-04-08T15:56:48.800Z,15.60
2023-04-08T15:59:17.572Z,15.40
2023-04-08T16:01:46.423Z,15.30
2023-04-08T16:04:16.370Z,15.40
2023-04-08T16:06:47.125Z,15.60
2023-04-08T16:09:17.196Z,15.70
2023-04-08T16:11:47.530Z,15.50
2023-04-08T16:14:16.247Z,15.50
2023-04-08T16:16:44.946Z,15.60
2023-04-08T16:19:13.918Z,15.50
2023-04-08T16:21:42.874Z,15.20
2023-04-08T16:24:11.804Z,15.20
2023-04-08T16:26:41.073Z,15.40
2023-04-08T16:29:11.257Z,15.20
2023-04-08T16:31:39.965Z,15.40
2023-04-08T16:34:08.671Z,15.40
2023-04-08T16:36:37.506Z,15.40
2023-04-08T16:39:06.266Z,15.20
2023-04-08T16:41:35.075Z,15.10
2023-04-08T16:44:03.892Z,15.00
2023-04-08T16:46:34.485Z,14.70
2023-04-08T16:49:03.328Z,14.60
2023-04-08T16:51:32.125Z,14.50
2023-04-08T16:54:00.987Z,14.40
2023-04-08T16:56:29.793Z,14.40
2023-04-08T16:58:58.554Z,14.20
2023-04-08T17:01:27.357Z,14.00
2023-04-08T17:03:58.062Z,14.00
2023-04-08T17:06:27.338Z,13.50
2023-04-08T17:08:56.335Z,13.50
2023-04-08T17:11:25.202Z,13.40
2023-04-08T17:13:53.987Z,13.40
2023-04-08T17:16:22.861Z,13.30
2023-04-08T17:18:52.347Z,13.20
2023-04-08T17:21:22.784Z,13.10
2023-04-08T17:23:53.138Z,12.90
2023-04-08T17:26:22.493Z,12.80
2023-04-08T17:28:51.497Z,12.90
2023-04-08T17:31:20.228Z,12.80
2023-04-08T17:33:49.091Z,12.80
2023-04-08T17:36:19.420Z,12.60
2023-04-08T17:38:49.606Z,12.50
2023-04-08T17:41:29.875Z,12.40
2023-04-08T17:44:07.200Z,12.30
2023-04-08T17:46:35.968Z,12.50
2023-04-08T17:49:04.797Z,12.40
2023-04-08T17:51:34.496Z,12.30
2023-04-08T17:54:05.353Z,12.30
2023-04-08T17:56:34.735Z,12.10
2023-04-08T17:59:03.738Z,12.00
2023-04-08T18:01:32.520Z,12.00
2023-04-08T18:04:01.745Z,12.10
2023-04-08T18:06:32.165Z,12.10
2023-04-08T18:09:01.259Z,12.00
2023-04-08T18:11:31.574Z,12.00
2023-04-08T18:14:00.342Z,12.00
2023-04-08T18:16:29.158Z,12.00
2023-04-08T18:18:57.982Z,12.10
2023-04-08T18:21:27.327Z,12.10
2023-04-08T18:23:56.093Z,12.20
2023-04-08T18:26:24.852Z,12.20
2023-04-08T18:28:55.173Z,12.20
2023-04-08T18:31:24.712Z,12.10
2023-04-08T18:33:53.829Z,12.00
2023-04-08T18:36:23.114Z,12.00
2023-04-08T18:38:52.065Z,12.00
2023-04-08T18:41:21.288Z,12.00
2023-04-08T18:43:50.206Z,12.00
2023-04-08T18:46:20.696Z,12.00
2023-04-08T18:48:49.907Z,12.00
2023-04-08T18:51:18.806Z,11.90
2023-04-08T18:53:47.900Z,11.90
2023-04-08T18:56:17.569Z,11.90
2023-04-08T18:58:47.238Z,11.90
2023-04-08T19:01:16.442Z,11.80
2023-04-08T19:03:46.836Z,11.80
2023-04-08T19:06:17.549Z,11.80
2023-04-08T19:08:48.213Z,11.70
2023-04-08T19:11:17.150Z,11.70
2023-04-08T19:13:46.074Z,11.70
2023-04-08T19:16:14.745Z,11.70
2023-04-08T19:18:43.530Z,11.60
2023-04-08T19:21:13.709Z,11.30
2023-04-08T19:23:42.779Z,11.10
2023-04-08T19:26:11.497Z,11.00
2023-04-08T19:28:40.277Z,11.10
2023-04-08T19:31:17.147Z,11.10
2023-04-08T19:33:46.186Z,11.10
2023-04-08T19:36:16.477Z,11.20
2023-04-08T19:38:45.217Z,11.20
2023-04-08T19:41:13.941Z,11.10
2023-04-08T19:43:42.628Z,11.10
2023-04-08T19:46:11.394Z,11.10
2023-04-08T19:48:40.178Z,11.00
2023-04-08T19:51:09.049Z,11.00
2023-04-08T19:53:39.139Z,11.00
2023-04-08T19:56:08.042Z,10.90
2023-04-08T19:58:37.100Z,10.90
2023-04-08T20:01:08.216Z,10.80
2023-04-08T20:03:37.155Z,10.70
2023-04-08T20:06:06.042Z,10.80
2023-04-08T20:08:35.110Z,10.60
2023-04-08T20:11:05.329Z,10.60
2023-04-08T20:13:33.958Z,10.70
2023-04-08T20:16:03.080Z,10.60
2023-04-08T20:18:32.430Z,10.60
2023-04-08T20:21:01.591Z,10.50
2023-04-08T20:23:30.689Z,10.50
2023-04-08T20:25:59.690Z,10.50
2023-04-08T20:28:30.649Z,10.60
2023-04-08T20:30:59.446Z,10.70
2023-04-08T20:33:28.330Z,10.70
2023-04-08T20:35:57.883Z,10.70
2023-04-08T20:38:26.691Z,10.50
2023-04-08T20:40:55.859Z,10.50
2023-04-08T20:43:24.709Z,10.40
2023-04-08T20:45:54.836Z,10.40
2023-04-08T20:48:24.018Z,10.40
2023-04-08T20:50:52.720Z,10.40
2023-04-08T20:53:23.864Z,10.40
2023-04-08T20:55:52.609Z,10.40
2023-04-08T20:58:21.771Z,10.40
2023-04-08T21:00:50.721Z,10.30
2023-04-08T21:03:21.072Z,10.20
2023-04-08T21:05:50.458Z,10.20
2023-04-08T21:08:19.203Z,10.10
2023-04-08T21:10:48.143Z,10.20
2023-04-08T21:13:16.857Z,10.00
2023-04-08T21:15:45.503Z,9.90
2023-04-08T21:18:14.242Z,9.70
2023-04-08T21:20:44.381Z,9.80
2023-04-08T21:23:13.191Z,9.80
2023-04-08T21:25:41.930Z,9.80
2023-04-08T21:28:10.689Z,9.90
2023-04-08T21:30:39.439Z,9.90
2023-04-08T21:33:08.192Z,9.90
2023-04-08T21:35:37.220Z,9.90
2023-04-08T21:38:07.828Z,9.90
2023-04-08T21:40:36.502Z,9.90
2023-04-08T21:43:05.212Z,9.90
2023-04-08T21:45:33.966Z,10.00
2023-04-08T21:48:02.720Z,10.00
2023-04-08T21:50:32.608Z,10.00
2023-04-08T21:53:01.231Z,10.00
2023-04-08T21:55:31.428Z,9.90
2023-04-08T21:58:00.267Z,9.90
2023-04-08T22:00:29.105Z,9.90
2023-04-08T22:02:58.155Z,9.90
2023-04-08T22:05:27.109Z,9.80
2023-04-08T22:07:55.736Z,9.80
2023-04-08T22:10:24.627Z,9.70
2023-04-08T22:12:54.749Z,9.70
2023-04-08T22:15:23.676Z,9.60
2023-04-08T22:17:53.421Z,9.70
2023-04-08T22:20:22.287Z,9.70
2023-04-08T22:22:51.031Z,9.70
2023-04-08T22:25:19.794Z,9.70
2023-04-08T22:27:48.491Z,9.50
2023-04-08T22:30:18.849Z,9.50
2023-04-08T22:32:47.636Z,9.50
2023-04-08T22:35:16.548Z,9.70
2023-04-08T22:37:45.316Z,9.70
2023-04-08T22:40:14.261Z,9.70
2023-04-08T22:42:42.939Z,9.70
2023-04-08T22:45:12.165Z,9.70
2023-04-08T22:47:42.510Z,9.70
2023-04-08T22:50:12.146Z,9.70
2023-04-08T22:52:40.889Z,9.80
2023-04-08T22:55:10.233Z,9.80
2023-04-08T22:57:38.949Z,9.80
2023-04-08T23:00:09.519Z,9.80
2023-04-08T23:02:38.289Z,9.60
2023-04-08T23:05:09.996Z,9.50
2023-04-08T23:07:38.726Z,9.40
2023-04-08T23:10:08.856Z,9.40
2023-04-08T23:12:37.558Z,9.30
2023-04-08T23:15:07.385Z,9.30
2023-04-08T23:17:36.054Z,9.40
2023-04-08T23:20:10.030Z,9.30
2023-04-08T23:22:38.664Z,9.30
2023-04-08T23:25:08.699Z,9.30
2023-04-08T23:27:37.411Z,9.30
2023-04-08T23:30:07.231Z,9.30
2023-04-08T23:32:36.700Z,9.30
2023-04-08T23:35:05.856Z,9.20
2023-04-08T23:37:35.975Z,8.90
2023-04-08T23:40:04.852Z,9.00
2023-04-08T23:42:33.492Z,8.90
2023-04-08T23:45:02.330Z,9.00
2023-04-08T23:47:31.332Z,9.00
2023-04-08T23:50:00.246Z,9.00
2023-04-08T23:52:28.933Z,9.00
2023-04-08T23:54:59.006Z,9.10
2023-04-08T23:57:27.795Z,9.10
2023-04-08T23:59:56.480Z,9.10
